sensor_id;sensor_type;location;lat;lon;timestamp;P1;durP1;ratioP1;P2;durP2;ratioP2
25435;SDS011;13363;52.772;-3.890;2023-06-14T00:00:58;11.02;;;3.95;;
25435;SDS011;13363;52.772;-3.890;2023-06-14T00:03:24;4.30;;;3.90;;
25435;SDS011;13363;52.772;-3.890;2023-06-14T00:05:51;3.92;;;3.63;;
25435;SDS011;13363;52.772;-3.890;2023-06-14T00:08:17;4.67;;;3.67;;
25435;SDS011;13363;52.772;-3.890;2023-06-14T00:10:44;4.05;;;3.58;;
25435;SDS011;13363;52.772;-3.890;2023-06-14T00:13:10;3.70;;;3.50;;
25435;SDS011;13363;52.772;-3.890;2023-06-14T00:15:37;4.20;;;3.83;;
25435;SDS011;13363;52.772;-3.890;2023-06-14T00:18:03;4.63;;;4.18;;
25435;SDS011;13363;52.772;-3.890;2023-06-14T00:20:30;5.05;;;4.35;;
25435;SDS011;13363;52.772;-3.890;2023-06-14T00:22:58;4.10;;;3.80;;
25435;SDS011;13363;52.772;-3.890;2023-06-14T00:25:24;3.63;;;3.42;;
25435;SDS011;13363;52.772;-3.890;2023-06-14T00:27:50;5.25;;;3.60;;
25435;SDS011;13363;52.772;-3.890;2023-06-14T00:30:17;4.03;;;3.70;;
25435;SDS011;13363;52.772;-3.890;2023-06-14T00:32:43;4.90;;;3.60;;
25435;SDS011;13363;52.772;-3.890;2023-06-14T00:35:10;3.53;;;3.05;;
25435;SDS011;13363;52.772;-3.890;2023-06-14T00:37:36;3.72;;;3.47;;
25435;SDS011;13363;52.772;-3.890;2023-06-14T00:40:02;4.63;;;3.77;;
25435;SDS011;13363;52.772;-3.890;2023-06-14T00:42:29;4.43;;;3.80;;
25435;SDS011;13363;52.772;-3.890;2023-06-14T00:44:56;4.13;;;3.70;;
25435;SDS011;13363;52.772;-3.890;2023-06-14T00:47:22;4.68;;;3.50;;
25435;SDS011;13363;52.772;-3.890;2023-06-14T00:49:53;3.58;;;3.35;;
25435;SDS011;13363;52.772;-3.890;2023-06-14T00:52:22;4.33;;;3.60;;
25435;SDS011;13363;52.772;-3.890;2023-06-14T00:54:51;5.55;;;3.70;;
25435;SDS011;13363;52.772;-3.890;2023-06-14T00:57:17;3.60;;;3.30;;
25435;SDS011;13363;52.772;-3.890;2023-06-14T00:59:45;7.17;;;3.47;;
25435;SDS011;13363;52.772;-3.890;2023-06-14T01:02:12;3.63;;;3.30;;
25435;SDS011;13363;52.772;-3.890;2023-06-14T01:04:40;5.53;;;3.60;;
25435;SDS011;13363;52.772;-3.890;2023-06-14T01:07:18;7.03;;;3.90;;
25435;SDS011;13363;52.772;-3.890;2023-06-14T01:15:22;5.13;;;3.50;;
25435;SDS011;13363;52.772;-3.890;2023-06-14T01:17:49;3.63;;;3.33;;
25435;SDS011;13363;52.772;-3.890;2023-06-14T01:20:19;3.10;;;2.90;;
25435;SDS011;13363;52.772;-3.890;2023-06-14T01:22:52;4.07;;;3.37;;
25435;SDS011;13363;52.772;-3.890;2023-06-14T01:25:22;3.40;;;3.20;;
25435;SDS011;13363;52.772;-3.890;2023-06-14T01:27:49;6.37;;;3.53;;
25435;SDS011;13363;52.772;-3.890;2023-06-14T01:30:27;4.13;;;3.08;;
25435;SDS011;13363;52.772;-3.890;2023-06-14T01:32:54;3.63;;;3.40;;
25435;SDS011;13363;52.772;-3.890;2023-06-14T01:35:22;3.47;;;3.20;;
25435;SDS011;13363;52.772;-3.890;2023-06-14T01:37:48;3.60;;;3.40;;
25435;SDS011;13363;52.772;-3.890;2023-06-14T01:40:15;3.77;;;3.47;;
25435;SDS011;13363;52.772;-3.890;2023-06-14T01:42:43;3.97;;;3.60;;
25435;SDS011;13363;52.772;-3.890;2023-06-14T01:45:11;4.30;;;4.00;;
25435;SDS011;13363;52.772;-3.890;2023-06-14T01:47:37;3.97;;;3.20;;
25435;SDS011;13363;52.772;-3.890;2023-06-14T01:50:04;3.67;;;3.33;;
25435;SDS011;13363;52.772;-3.890;2023-06-14T01:52:30;3.50;;;3.27;;
25435;SDS011;13363;52.772;-3.890;2023-06-14T01:54:56;3.53;;;3.33;;
25435;SDS011;13363;52.772;-3.890;2023-06-14T01:57:23;3.50;;;3.27;;
25435;SDS011;13363;52.772;-3.890;2023-06-14T01:59:50;3.77;;;3.50;;
25435;SDS011;13363;52.772;-3.890;2023-06-14T02:02:16;3.87;;;3.63;;
25435;SDS011;13363;52.772;-3.890;2023-06-14T02:04:42;3.33;;;3.13;;
25435;SDS011;13363;52.772;-3.890;2023-06-14T02:07:08;4.67;;;3.90;;
25435;SDS011;13363;52.772;-3.890;2023-06-14T02:09:34;3.67;;;3.40;;
25435;SDS011;13363;52.772;-3.890;2023-06-14T02:12:00;4.23;;;3.83;;
25435;SDS011;13363;52.772;-3.890;2023-06-14T02:14:26;3.50;;;3.20;;
25435;SDS011;13363;52.772;-3.890;2023-06-14T02:16:53;3.93;;;3.63;;
25435;SDS011;13363;52.772;-3.890;2023-06-14T02:19:20;5.07;;;3.73;;
25435;SDS011;13363;52.772;-3.890;2023-06-14T02:21:46;3.63;;;3.33;;
25435;SDS011;13363;52.772;-3.890;2023-06-14T02:24:13;4.00;;;3.30;;
25435;SDS011;13363;52.772;-3.890;2023-06-14T02:26:39;3.87;;;3.67;;
25435;SDS011;13363;52.772;-3.890;2023-06-14T02:29:08;4.10;;;3.77;;
25435;SDS011;13363;52.772;-3.890;2023-06-14T02:31:36;3.57;;;3.30;;
25435;SDS011;13363;52.772;-3.890;2023-06-14T02:34:03;4.80;;;3.00;;
25435;SDS011;13363;52.772;-3.890;2023-06-14T02:36:29;4.13;;;3.83;;
25435;SDS011;13363;52.772;-3.890;2023-06-14T02:38:55;4.00;;;3.07;;
25435;SDS011;13363;52.772;-3.890;2023-06-14T02:41:25;4.20;;;3.80;;
25435;SDS011;13363;52.772;-3.890;2023-06-14T02:43:51;5.20;;;3.97;;
25435;SDS011;13363;52.772;-3.890;2023-06-14T02:46:17;3.73;;;3.33;;
25435;SDS011;13363;52.772;-3.890;2023-06-14T02:48:43;5.43;;;3.10;;
25435;SDS011;13363;52.772;-3.890;2023-06-14T02:51:09;4.63;;;3.20;;
25435;SDS011;13363;52.772;-3.890;2023-06-14T02:53:35;3.23;;;3.00;;
25435;SDS011;13363;52.772;-3.890;2023-06-14T02:56:02;3.40;;;3.20;;
25435;SDS011;13363;52.772;-3.890;2023-06-14T02:58:29;3.10;;;2.90;;
25435;SDS011;13363;52.772;-3.890;2023-06-14T03:00:55;5.93;;;3.47;;
25435;SDS011;13363;52.772;-3.890;2023-06-14T03:03:21;3.30;;;3.10;;
25435;SDS011;13363;52.772;-3.890;2023-06-14T03:05:49;4.23;;;3.83;;
25435;SDS011;13363;52.772;-3.890;2023-06-14T03:08:17;2.47;;;2.27;;
25435;SDS011;13363;52.772;-3.890;2023-06-14T03:10:45;3.23;;;3.03;;
25435;SDS011;13363;52.772;-3.890;2023-06-14T03:13:11;3.47;;;3.17;;
25435;SDS011;13363;52.772;-3.890;2023-06-14T03:15:38;3.27;;;3.07;;
25435;SDS011;13363;52.772;-3.890;2023-06-14T03:18:07;3.27;;;3.00;;
25435;SDS011;13363;52.772;-3.890;2023-06-14T03:20:34;3.00;;;2.80;;
25435;SDS011;13363;52.772;-3.890;2023-06-14T03:23:01;3.63;;;3.43;;
25435;SDS011;13363;52.772;-3.890;2023-06-14T03:25:28;3.40;;;2.97;;
25435;SDS011;13363;52.772;-3.890;2023-06-14T03:27:55;4.27;;;3.30;;
25435;SDS011;13363;52.772;-3.890;2023-06-14T03:30:21;4.23;;;3.03;;
25435;SDS011;13363;52.772;-3.890;2023-06-14T03:32:47;5.23;;;3.40;;
25435;SDS011;13363;52.772;-3.890;2023-06-14T03:35:13;3.67;;;3.37;;
25435;SDS011;13363;52.772;-3.890;2023-06-14T03:37:43;3.77;;;3.50;;
25435;SDS011;13363;52.772;-3.890;2023-06-14T03:40:10;4.53;;;3.60;;
25435;SDS011;13363;52.772;-3.890;2023-06-14T03:42:38;3.80;;;3.50;;
25435;SDS011;13363;52.772;-3.890;2023-06-14T03:45:05;3.50;;;3.20;;
25435;SDS011;13363;52.772;-3.890;2023-06-14T03:47:32;3.90;;;3.60;;
25435;SDS011;13363;52.772;-3.890;2023-06-14T03:49:58;3.87;;;3.50;;
25435;SDS011;13363;52.772;-3.890;2023-06-14T03:52:25;3.17;;;2.97;;
25435;SDS011;13363;52.772;-3.890;2023-06-14T03:54:51;3.60;;;3.30;;
25435;SDS011;13363;52.772;-3.890;2023-06-14T03:57:18;3.80;;;3.33;;
25435;SDS011;13363;52.772;-3.890;2023-06-14T03:59:45;3.93;;;3.33;;
25435;SDS011;13363;52.772;-3.890;2023-06-14T04:02:12;3.53;;;3.33;;
25435;SDS011;13363;52.772;-3.890;2023-06-14T04:04:41;3.70;;;3.50;;
25435;SDS011;13363;52.772;-3.890;2023-06-14T04:07:09;3.77;;;3.47;;
25435;SDS011;13363;52.772;-3.890;2023-06-14T04:09:39;3.80;;;3.50;;
25435;SDS011;13363;52.772;-3.890;2023-06-14T04:12:05;3.17;;;2.97;;
25435;SDS011;13363;52.772;-3.890;2023-06-14T04:14:34;3.77;;;3.50;;
25435;SDS011;13363;52.772;-3.890;2023-06-14T04:17:00;3.73;;;3.30;;
25435;SDS011;13363;52.772;-3.890;2023-06-14T04:19:26;3.50;;;3.30;;
25435;SDS011;13363;52.772;-3.890;2023-06-14T04:21:52;4.73;;;3.30;;
25435;SDS011;13363;52.772;-3.890;2023-06-14T04:24:18;3.80;;;3.40;;
25435;SDS011;13363;52.772;-3.890;2023-06-14T04:26:44;3.13;;;2.83;;
25435;SDS011;13363;52.772;-3.890;2023-06-14T04:29:13;2.90;;;2.70;;
25435;SDS011;13363;52.772;-3.890;2023-06-14T04:31:44;3.00;;;2.77;;
25435;SDS011;13363;52.772;-3.890;2023-06-14T04:34:11;2.80;;;2.60;;
25435;SDS011;13363;52.772;-3.890;2023-06-14T04:36:44;3.00;;;2.70;;
25435;SDS011;13363;52.772;-3.890;2023-06-14T04:39:18;4.30;;;2.67;;
25435;SDS011;13363;52.772;-3.890;2023-06-14T04:41:46;2.87;;;2.67;;
25435;SDS011;13363;52.772;-3.890;2023-06-14T04:44:12;3.10;;;2.90;;
25435;SDS011;13363;52.772;-3.890;2023-06-14T04:46:39;4.13;;;2.70;;
25435;SDS011;13363;52.772;-3.890;2023-06-14T04:49:14;3.03;;;2.83;;
25435;SDS011;13363;52.772;-3.890;2023-06-14T04:51:41;3.00;;;2.80;;
25435;SDS011;13363;52.772;-3.890;2023-06-14T04:54:08;3.20;;;3.00;;
25435;SDS011;13363;52.772;-3.890;2023-06-14T04:56:42;3.00;;;2.80;;
25435;SDS011;13363;52.772;-3.890;2023-06-14T04:59:09;2.90;;;2.70;;
25435;SDS011;13363;52.772;-3.890;2023-06-14T05:01:36;3.27;;;2.97;;
25435;SDS011;13363;52.772;-3.890;2023-06-14T05:04:02;3.20;;;2.67;;
25435;SDS011;13363;52.772;-3.890;2023-06-14T05:06:29;3.30;;;3.10;;
25435;SDS011;13363;52.772;-3.890;2023-06-14T05:08:56;2.90;;;2.70;;
25435;SDS011;13363;52.772;-3.890;2023-06-14T05:11:22;3.23;;;3.03;;
25435;SDS011;13363;52.772;-3.890;2023-06-14T05:13:52;3.23;;;3.03;;
25435;SDS011;13363;52.772;-3.890;2023-06-14T05:16:18;2.90;;;2.70;;
25435;SDS011;13363;52.772;-3.890;2023-06-14T05:18:45;2.50;;;2.40;;
25435;SDS011;13363;52.772;-3.890;2023-06-14T05:21:12;3.13;;;2.80;;
25435;SDS011;13363;52.772;-3.890;2023-06-14T05:23:42;3.30;;;3.10;;
25435;SDS011;13363;52.772;-3.890;2023-06-14T05:26:09;2.90;;;2.70;;
25435;SDS011;13363;52.772;-3.890;2023-06-14T05:28:35;5.17;;;3.30;;
25435;SDS011;13363;52.772;-3.890;2023-06-14T05:31:02;4.37;;;3.13;;
25435;SDS011;13363;52.772;-3.890;2023-06-14T05:33:28;3.57;;;3.27;;
25435;SDS011;13363;52.772;-3.890;2023-06-14T05:35:54;2.77;;;2.60;;
25435;SDS011;13363;52.772;-3.890;2023-06-14T05:38:20;3.83;;;2.90;;
25435;SDS011;13363;52.772;-3.890;2023-06-14T05:40:47;3.40;;;3.20;;
25435;SDS011;13363;52.772;-3.890;2023-06-14T05:43:12;3.47;;;3.27;;
25435;SDS011;13363;52.772;-3.890;2023-06-14T05:45:38;3.53;;;3.23;;
25435;SDS011;13363;52.772;-3.890;2023-06-14T05:48:04;2.93;;;2.73;;
25435;SDS011;13363;52.772;-3.890;2023-06-14T05:50:30;3.10;;;2.90;;
25435;SDS011;13363;52.772;-3.890;2023-06-14T05:52:56;5.13;;;2.93;;
25435;SDS011;13363;52.772;-3.890;2023-06-14T05:55:22;2.97;;;2.77;;
25435;SDS011;13363;52.772;-3.890;2023-06-14T05:57:48;3.20;;;3.00;;
25435;SDS011;13363;52.772;-3.890;2023-06-14T06:00:14;2.83;;;2.63;;
25435;SDS011;13363;52.772;-3.890;2023-06-14T06:02:44;4.53;;;2.70;;
25435;SDS011;13363;52.772;-3.890;2023-06-14T06:05:13;4.63;;;3.42;;
25435;SDS011;13363;52.772;-3.890;2023-06-14T06:07:40;3.05;;;2.85;;
25435;SDS011;13363;52.772;-3.890;2023-06-14T06:10:07;3.03;;;2.78;;
25435;SDS011;13363;52.772;-3.890;2023-06-14T06:12:33;3.28;;;3.08;;
25435;SDS011;13363;52.772;-3.890;2023-06-14T06:14:59;2.95;;;2.67;;
25435;SDS011;13363;52.772;-3.890;2023-06-14T06:17:25;3.40;;;3.20;;
25435;SDS011;13363;52.772;-3.890;2023-06-14T06:19:51;3.30;;;2.83;;
25435;SDS011;13363;52.772;-3.890;2023-06-14T06:22:17;2.90;;;2.60;;
25435;SDS011;13363;52.772;-3.890;2023-06-14T06:24:43;2.50;;;2.40;;
25435;SDS011;13363;52.772;-3.890;2023-06-14T06:27:09;3.28;;;2.67;;
25435;SDS011;13363;52.772;-3.890;2023-06-14T06:29:35;2.85;;;2.65;;
25435;SDS011;13363;52.772;-3.890;2023-06-14T06:32:01;4.68;;;2.60;;
25435;SDS011;13363;52.772;-3.890;2023-06-14T06:34:28;2.78;;;2.58;;
25435;SDS011;13363;52.772;-3.890;2023-06-14T06:36:54;2.78;;;2.50;;
25435;SDS011;13363;52.772;-3.890;2023-06-14T06:39:20;3.30;;;3.10;;
25435;SDS011;13363;52.772;-3.890;2023-06-14T06:41:46;2.50;;;2.30;;
25435;SDS011;13363;52.772;-3.890;2023-06-14T06:44:12;2.92;;;2.65;;
25435;SDS011;13363;52.772;-3.890;2023-06-14T06:46:38;2.80;;;2.60;;
25435;SDS011;13363;52.772;-3.890;2023-06-14T06:49:08;3.15;;;2.60;;
25435;SDS011;13363;52.772;-3.890;2023-06-14T06:51:40;3.00;;;2.80;;
25435;SDS011;13363;52.772;-3.890;2023-06-14T06:54:08;3.20;;;3.00;;
25435;SDS011;13363;52.772;-3.890;2023-06-14T06:56:34;2.90;;;2.70;;
25435;SDS011;13363;52.772;-3.890;2023-06-14T06:59:00;3.05;;;2.80;;
25435;SDS011;13363;52.772;-3.890;2023-06-14T07:01:26;2.78;;;2.60;;
25435;SDS011;13363;52.772;-3.890;2023-06-14T07:03:54;3.85;;;2.22;;
25435;SDS011;13363;52.772;-3.890;2023-06-14T07:06:20;2.70;;;2.60;;
25435;SDS011;13363;52.772;-3.890;2023-06-14T07:08:46;2.85;;;2.65;;
25435;SDS011;13363;52.772;-3.890;2023-06-14T07:11:13;6.68;;;3.17;;
25435;SDS011;13363;52.772;-3.890;2023-06-14T07:13:39;3.13;;;2.30;;
25435;SDS011;13363;52.772;-3.890;2023-06-14T07:16:05;2.38;;;2.20;;
25435;SDS011;13363;52.772;-3.890;2023-06-14T07:18:31;4.20;;;2.40;;
25435;SDS011;13363;52.772;-3.890;2023-06-14T07:20:59;2.50;;;2.33;;
25435;SDS011;13363;52.772;-3.890;2023-06-14T07:23:35;4.32;;;2.40;;
25435;SDS011;13363;52.772;-3.890;2023-06-14T07:26:05;3.35;;;2.40;;
25435;SDS011;13363;52.772;-3.890;2023-06-14T07:28:38;2.60;;;2.40;;
25435;SDS011;13363;52.772;-3.890;2023-06-14T07:31:10;2.47;;;2.25;;
25435;SDS011;13363;52.772;-3.890;2023-06-14T07:33:36;2.30;;;2.20;;
25435;SDS011;13363;52.772;-3.890;2023-06-14T07:36:02;2.30;;;2.20;;
25435;SDS011;13363;52.772;-3.890;2023-06-14T07:38:28;3.05;;;2.28;;
25435;SDS011;13363;52.772;-3.890;2023-06-14T07:40:53;4.00;;;2.30;;
25435;SDS011;13363;52.772;-3.890;2023-06-14T07:43:19;2.30;;;2.10;;
25435;SDS011;13363;52.772;-3.890;2023-06-14T07:45:45;6.10;;;2.75;;
25435;SDS011;13363;52.772;-3.890;2023-06-14T07:48:11;3.17;;;2.50;;
25435;SDS011;13363;52.772;-3.890;2023-06-14T07:50:37;2.50;;;2.40;;
25435;SDS011;13363;52.772;-3.890;2023-06-14T07:53:03;2.40;;;2.28;;
25435;SDS011;13363;52.772;-3.890;2023-06-14T07:55:29;3.40;;;2.28;;
25435;SDS011;13363;52.772;-3.890;2023-06-14T07:57:55;3.20;;;2.38;;
25435;SDS011;13363;52.772;-3.890;2023-06-14T08:00:22;3.05;;;2.33;;
25435;SDS011;13363;52.772;-3.890;2023-06-14T08:02:48;3.00;;;2.28;;
25435;SDS011;13363;52.772;-3.890;2023-06-14T08:05:13;3.83;;;2.58;;
25435;SDS011;13363;52.772;-3.890;2023-06-14T08:07:40;4.45;;;2.47;;
25435;SDS011;13363;52.772;-3.890;2023-06-14T08:10:06;2.25;;;2.15;;
25435;SDS011;13363;52.772;-3.890;2023-06-14T08:12:32;2.53;;;2.33;;
25435;SDS011;13363;52.772;-3.890;2023-06-14T08:14:59;4.60;;;2.13;;
25435;SDS011;13363;52.772;-3.890;2023-06-14T08:17:25;2.83;;;2.00;;
25435;SDS011;13363;52.772;-3.890;2023-06-14T08:19:51;3.13;;;2.20;;
25435;SDS011;13363;52.772;-3.890;2023-06-14T08:22:19;2.88;;;2.20;;
25435;SDS011;13363;52.772;-3.890;2023-06-14T08:24:47;3.85;;;2.10;;
25435;SDS011;13363;52.772;-3.890;2023-06-14T08:27:13;2.58;;;2.30;;
25435;SDS011;13363;52.772;-3.890;2023-06-14T08:29:39;2.67;;;2.30;;
25435;SDS011;13363;52.772;-3.890;2023-06-14T08:32:06;5.05;;;2.55;;
25435;SDS011;13363;52.772;-3.890;2023-06-14T08:34:32;3.58;;;2.25;;
25435;SDS011;13363;52.772;-3.890;2023-06-14T08:36:59;2.90;;;2.60;;
25435;SDS011;13363;52.772;-3.890;2023-06-14T08:39:25;2.35;;;2.20;;
25435;SDS011;13363;52.772;-3.890;2023-06-14T08:41:52;2.13;;;1.95;;
25435;SDS011;13363;52.772;-3.890;2023-06-14T08:44:22;2.00;;;1.90;;
25435;SDS011;13363;52.772;-3.890;2023-06-14T08:46:48;3.33;;;1.98;;
25435;SDS011;13363;52.772;-3.890;2023-06-14T08:49:16;2.70;;;2.50;;
25435;SDS011;13363;52.772;-3.890;2023-06-14T08:51:47;2.47;;;2.30;;
25435;SDS011;13363;52.772;-3.890;2023-06-14T08:54:19;2.17;;;2.08;;
25435;SDS011;13363;52.772;-3.890;2023-06-14T08:56:46;2.97;;;2.05;;
25435;SDS011;13363;52.772;-3.890;2023-06-14T08:59:14;2.55;;;2.30;;
25435;SDS011;13363;52.772;-3.890;2023-06-14T09:01:40;2.35;;;2.15;;
25435;SDS011;13363;52.772;-3.890;2023-06-14T09:04:06;2.42;;;2.20;;
25435;SDS011;13363;52.772;-3.890;2023-06-14T09:06:33;3.53;;;2.08;;
25435;SDS011;13363;52.772;-3.890;2023-06-14T09:08:59;2.67;;;2.40;;
25435;SDS011;13363;52.772;-3.890;2023-06-14T09:11:26;3.22;;;2.20;;
25435;SDS011;13363;52.772;-3.890;2023-06-14T09:13:52;2.20;;;2.10;;
25435;SDS011;13363;52.772;-3.890;2023-06-14T09:16:18;2.28;;;2.15;;
25435;SDS011;13363;52.772;-3.890;2023-06-14T09:18:45;4.07;;;2.35;;
25435;SDS011;13363;52.772;-3.890;2023-06-14T09:21:16;2.85;;;2.28;;
25435;SDS011;13363;52.772;-3.890;2023-06-14T09:23:43;5.85;;;2.40;;
25435;SDS011;13363;52.772;-3.890;2023-06-14T09:26:11;3.83;;;2.22;;
25435;SDS011;13363;52.772;-3.890;2023-06-14T09:28:41;2.50;;;2.38;;
25435;SDS011;13363;52.772;-3.890;2023-06-14T09:31:08;3.63;;;2.30;;
25435;SDS011;13363;52.772;-3.890;2023-06-14T09:33:35;3.33;;;2.40;;
25435;SDS011;13363;52.772;-3.890;2023-06-14T09:36:01;5.63;;;2.47;;
25435;SDS011;13363;52.772;-3.890;2023-06-14T09:38:27;6.75;;;2.38;;
25435;SDS011;13363;52.772;-3.890;2023-06-14T09:40:55;3.97;;;2.47;;
25435;SDS011;13363;52.772;-3.890;2023-06-14T09:43:22;2.63;;;2.42;;
25435;SDS011;13363;52.772;-3.890;2023-06-14T09:45:48;2.58;;;2.30;;
25435;SDS011;13363;52.772;-3.890;2023-06-14T09:48:16;2.70;;;2.50;;
25435;SDS011;13363;52.772;-3.890;2023-06-14T09:50:47;2.72;;;2.47;;
25435;SDS011;13363;52.772;-3.890;2023-06-14T09:53:15;3.80;;;2.42;;
25435;SDS011;13363;52.772;-3.890;2023-06-14T09:55:45;2.65;;;2.45;;
25435;SDS011;13363;52.772;-3.890;2023-06-14T09:58:13;4.03;;;2.42;;
25435;SDS011;13363;52.772;-3.890;2023-06-14T10:00:41;2.72;;;2.53;;
25435;SDS011;13363;52.772;-3.890;2023-06-14T10:03:17;6.78;;;2.55;;
25435;SDS011;13363;52.772;-3.890;2023-06-14T10:05:48;4.97;;;2.47;;
25435;SDS011;13363;52.772;-3.890;2023-06-14T10:08:16;2.58;;;2.35;;
25435;SDS011;13363;52.772;-3.890;2023-06-14T10:10:47;2.28;;;2.17;;
25435;SDS011;13363;52.772;-3.890;2023-06-14T10:13:13;4.53;;;2.30;;
25435;SDS011;13363;52.772;-3.890;2023-06-14T10:15:48;3.10;;;2.47;;
25435;SDS011;13363;52.772;-3.890;2023-06-14T10:18:42;2.72;;;2.53;;
25435;SDS011;13363;52.772;-3.890;2023-06-14T10:22:00;4.20;;;2.35;;
25435;SDS011;13363;52.772;-3.890;2023-06-14T10:24:01;3.85;;;2.72;;
25435;SDS011;13363;52.772;-3.890;2023-06-14T10:26:32;5.28;;;2.38;;
25435;SDS011;13363;52.772;-3.890;2023-06-14T10:29:01;5.50;;;2.60;;
25435;SDS011;13363;52.772;-3.890;2023-06-14T10:31:40;3.83;;;2.55;;
25435;SDS011;13363;52.772;-3.890;2023-06-14T10:34:07;4.63;;;2.50;;
25435;SDS011;13363;52.772;-3.890;2023-06-14T10:36:33;4.13;;;2.50;;
25435;SDS011;13363;52.772;-3.890;2023-06-14T10:41:39;3.92;;;2.20;;
25435;SDS011;13363;52.772;-3.890;2023-06-14T10:46:37;4.65;;;2.90;;
25435;SDS011;13363;52.772;-3.890;2023-06-14T10:49:04;2.35;;;2.25;;
25435;SDS011;13363;52.772;-3.890;2023-06-14T10:51:37;2.65;;;2.38;;
25435;SDS011;13363;52.772;-3.890;2023-06-14T10:54:11;2.40;;;2.30;;
25435;SDS011;13363;52.772;-3.890;2023-06-14T10:56:38;2.80;;;2.60;;
25435;SDS011;13363;52.772;-3.890;2023-06-14T10:59:16;2.95;;;2.75;;
25435;SDS011;13363;52.772;-3.890;2023-06-14T11:12:47;2.95;;;2.65;;
25435;SDS011;13363;52.772;-3.890;2023-06-14T11:15:14;3.17;;;2.42;;
25435;SDS011;13363;52.772;-3.890;2023-06-14T11:17:49;3.22;;;2.97;;
25435;SDS011;13363;52.772;-3.890;2023-06-14T11:20:19;2.95;;;2.72;;
25435;SDS011;13363;52.772;-3.890;2023-06-14T11:22:45;3.67;;;3.03;;
25435;SDS011;13363;52.772;-3.890;2023-06-14T11:25:11;4.72;;;2.92;;
25435;SDS011;13363;52.772;-3.890;2023-06-14T11:27:37;2.90;;;2.70;;
25435;SDS011;13363;52.772;-3.890;2023-06-14T11:30:06;3.00;;;2.72;;
25435;SDS011;13363;52.772;-3.890;2023-06-14T11:32:33;2.60;;;2.35;;
25435;SDS011;13363;52.772;-3.890;2023-06-14T11:34:59;4.50;;;2.75;;
25435;SDS011;13363;52.772;-3.890;2023-06-14T11:37:25;2.72;;;2.63;;
25435;SDS011;13363;52.772;-3.890;2023-06-14T11:39:57;3.45;;;3.10;;
25435;SDS011;13363;52.772;-3.890;2023-06-14T11:42:24;4.38;;;2.97;;
25435;SDS011;13363;52.772;-3.890;2023-06-14T11:44:52;3.70;;;2.42;;
25435;SDS011;13363;52.772;-3.890;2023-06-14T11:47:18;4.75;;;2.60;;
25435;SDS011;13363;52.772;-3.890;2023-06-14T11:49:44;3.22;;;2.95;;
25435;SDS011;13363;52.772;-3.890;2023-06-14T11:52:11;3.25;;;3.05;;
25435;SDS011;13363;52.772;-3.890;2023-06-14T11:54:37;4.10;;;3.33;;
25435;SDS011;13363;52.772;-3.890;2023-06-14T11:57:06;3.70;;;2.83;;
25435;SDS011;13363;52.772;-3.890;2023-06-14T11:59:37;3.22;;;3.00;;
25435;SDS011;13363;52.772;-3.890;2023-06-14T12:02:09;3.15;;;2.85;;
25435;SDS011;13363;52.772;-3.890;2023-06-14T12:04:35;2.75;;;2.65;;
25435;SDS011;13363;52.772;-3.890;2023-06-14T12:12:20;3.63;;;3.33;;
25435;SDS011;13363;52.772;-3.890;2023-06-14T12:14:47;3.20;;;3.00;;
25435;SDS011;13363;52.772;-3.890;2023-06-14T12:17:16;3.15;;;2.92;;
25435;SDS011;13363;52.772;-3.890;2023-06-14T12:19:42;3.05;;;2.75;;
25435;SDS011;13363;52.772;-3.890;2023-06-14T12:22:12;3.10;;;2.90;;
25435;SDS011;13363;52.772;-3.890;2023-06-14T12:24:38;5.15;;;2.88;;
25435;SDS011;13363;52.772;-3.890;2023-06-14T12:27:07;5.22;;;3.47;;
25435;SDS011;13363;52.772;-3.890;2023-06-14T12:29:33;3.20;;;3.00;;
25435;SDS011;13363;52.772;-3.890;2023-06-14T12:32:00;3.25;;;2.95;;
25435;SDS011;13363;52.772;-3.890;2023-06-14T12:34:26;3.75;;;3.15;;
25435;SDS011;13363;52.772;-3.890;2023-06-14T12:36:53;3.47;;;3.28;;
25435;SDS011;13363;52.772;-3.890;2023-06-14T12:39:19;3.60;;;3.30;;
25435;SDS011;13363;52.772;-3.890;2023-06-14T12:41:46;4.32;;;3.17;;
25435;SDS011;13363;52.772;-3.890;2023-06-14T12:44:12;3.67;;;3.38;;
25435;SDS011;13363;52.772;-3.890;2023-06-14T12:46:39;4.00;;;3.25;;
25435;SDS011;13363;52.772;-3.890;2023-06-14T12:49:07;3.17;;;2.92;;
25435;SDS011;13363;52.772;-3.890;2023-06-14T12:51:34;3.83;;;3.53;;
25435;SDS011;13363;52.772;-3.890;2023-06-14T12:53:59;3.28;;;2.97;;
25435;SDS011;13363;52.772;-3.890;2023-06-14T12:56:25;3.58;;;3.38;;
25435;SDS011;13363;52.772;-3.890;2023-06-14T12:58:52;6.03;;;3.20;;
25435;SDS011;13363;52.772;-3.890;2023-06-14T13:01:18;4.35;;;3.25;;
25435;SDS011;13363;52.772;-3.890;2023-06-14T13:03:45;3.60;;;3.30;;
25435;SDS011;13363;52.772;-3.890;2023-06-14T13:06:11;3.33;;;3.13;;
25435;SDS011;13363;52.772;-3.890;2023-06-14T13:08:37;3.72;;;3.10;;
25435;SDS011;13363;52.772;-3.890;2023-06-14T13:11:03;5.35;;;3.70;;
25435;SDS011;13363;52.772;-3.890;2023-06-14T13:13:30;11.27;;;4.20;;
25435;SDS011;13363;52.772;-3.890;2023-06-14T13:15:56;3.50;;;3.20;;
25435;SDS011;13363;52.772;-3.890;2023-06-14T13:18:22;4.00;;;3.70;;
25435;SDS011;13363;52.772;-3.890;2023-06-14T13:20:47;3.58;;;3.30;;
25435;SDS011;13363;52.772;-3.890;2023-06-14T13:23:16;2.83;;;2.38;;
25435;SDS011;13363;52.772;-3.890;2023-06-14T13:25:45;3.13;;;2.92;;
25435;SDS011;13363;52.772;-3.890;2023-06-14T13:28:11;3.35;;;2.97;;
25435;SDS011;13363;52.772;-3.890;2023-06-14T13:30:37;3.20;;;2.97;;
25435;SDS011;13363;52.772;-3.890;2023-06-14T13:33:03;3.88;;;3.10;;
25435;SDS011;13363;52.772;-3.890;2023-06-14T13:35:29;3.53;;;3.22;;
25435;SDS011;13363;52.772;-3.890;2023-06-14T13:37:54;4.15;;;3.40;;
25435;SDS011;13363;52.772;-3.890;2023-06-14T13:40:20;4.18;;;2.83;;
25435;SDS011;13363;52.772;-3.890;2023-06-14T13:42:46;4.50;;;2.78;;
25435;SDS011;13363;52.772;-3.890;2023-06-14T13:45:13;3.35;;;3.15;;
25435;SDS011;13363;52.772;-3.890;2023-06-14T13:47:40;3.53;;;3.33;;
25435;SDS011;13363;52.772;-3.890;2023-06-14T13:50:06;3.42;;;3.08;;
25435;SDS011;13363;52.772;-3.890;2023-06-14T13:52:32;3.63;;;3.30;;
25435;SDS011;13363;52.772;-3.890;2023-06-14T13:54:58;2.92;;;2.72;;
25435;SDS011;13363;52.772;-3.890;2023-06-14T13:57:25;4.63;;;2.90;;
25435;SDS011;13363;52.772;-3.890;2023-06-14T13:59:51;3.45;;;2.88;;
25435;SDS011;13363;52.772;-3.890;2023-06-14T14:02:20;3.30;;;3.10;;
25435;SDS011;13363;52.772;-3.890;2023-06-14T14:04:46;3.50;;;3.30;;
25435;SDS011;13363;52.772;-3.890;2023-06-14T14:07:18;3.10;;;2.90;;
25435;SDS011;13363;52.772;-3.890;2023-06-14T14:09:45;3.72;;;3.17;;
25435;SDS011;13363;52.772;-3.890;2023-06-14T14:12:12;3.58;;;3.10;;
25435;SDS011;13363;52.772;-3.890;2023-06-14T14:14:39;5.43;;;3.70;;
25435;SDS011;13363;52.772;-3.890;2023-06-14T14:17:06;4.07;;;2.90;;
25435;SDS011;13363;52.772;-3.890;2023-06-14T14:19:32;3.47;;;3.20;;
25435;SDS011;13363;52.772;-3.890;2023-06-14T14:21:58;3.30;;;3.10;;
25435;SDS011;13363;52.772;-3.890;2023-06-14T14:24:24;3.28;;;3.08;;
25435;SDS011;13363;52.772;-3.890;2023-06-14T14:26:50;3.58;;;3.28;;
25435;SDS011;13363;52.772;-3.890;2023-06-14T14:29:18;3.42;;;3.13;;
25435;SDS011;13363;52.772;-3.890;2023-06-14T14:31:45;4.28;;;3.47;;
25435;SDS011;13363;52.772;-3.890;2023-06-14T14:34:11;3.25;;;3.00;;
25435;SDS011;13363;52.772;-3.890;2023-06-14T14:36:37;3.53;;;3.25;;
25435;SDS011;13363;52.772;-3.890;2023-06-14T14:39:07;4.05;;;3.05;;
25435;SDS011;13363;52.772;-3.890;2023-06-14T14:41:33;3.40;;;3.10;;
25435;SDS011;13363;52.772;-3.890;2023-06-14T14:43:59;5.18;;;3.28;;
25435;SDS011;13363;52.772;-3.890;2023-06-14T14:46:26;4.60;;;3.60;;
25435;SDS011;13363;52.772;-3.890;2023-06-14T14:48:53;3.72;;;3.50;;
25435;SDS011;13363;52.772;-3.890;2023-06-14T14:51:19;3.25;;;3.03;;
25435;SDS011;13363;52.772;-3.890;2023-06-14T14:53:45;3.67;;;3.38;;
25435;SDS011;13363;52.772;-3.890;2023-06-14T14:56:10;3.95;;;3.22;;
25435;SDS011;13363;52.772;-3.890;2023-06-14T14:58:37;4.25;;;3.33;;
25435;SDS011;13363;52.772;-3.890;2023-06-14T15:01:03;3.60;;;3.40;;